EWG7XB EDDL-LIBD
Flight info
| Callsign | EWG7XB |
|---|---|
| Flight time | 1h 58m |
| Altitude | 37000 |
| Route | DODEN1T DODEN Y853 BOMBI DCT DETEV DCT DINKU/N0451F330 M867 XERUM DCT BAVAX DCT RADIZ DCT ALIVO DCT AIOSA DCT BANAV |
| Aircraft | A320/M-SDE3FGHIRWY/LB1 |
Departure
| Time | 2026-05-05 04:46 |
|---|---|
| Airport | Düsseldorf Airport (EDDL) |
Arrival
| Time | 2026-05-05 06:44 |
|---|---|
| Airport | Bari Karol Wojtyła International Airport (LIBD) |
| Time | Latitude | Longitude | Altitude | Speed | Heading |
|---|---|---|---|---|---|
| 2026-05-05 04:03 | 51.28658 | 6.77440 | 128 ft | 0 kts | 322° |
| 2026-05-05 04:03 | 51.28658 | 6.77441 | 128 ft | 0 kts | 322° |
| 2026-05-05 04:33 | 51.28657 | 6.77441 | 128 ft | 0 kts | 322° |
| 2026-05-05 04:35 | 51.28651 | 6.77450 | 128 ft | 4 kts | 322° |
| 2026-05-05 04:35 | 51.28633 | 6.77471 | 123 ft | 4 kts | 333° |
| 2026-05-05 04:36 | 51.28609 | 6.77480 | 127 ft | 4 kts | 19° |
| 2026-05-05 04:36 | 51.28589 | 6.77457 | 124 ft | 4 kts | 52° |
| 2026-05-05 04:36 | 51.28582 | 6.77444 | 124 ft | 0 kts | 52° |
| 2026-05-05 04:38 | 51.28583 | 6.77444 | 129 ft | 0 kts | 52° |
| 2026-05-05 04:38 | 51.28600 | 6.77480 | 128 ft | 5 kts | 53° |
| 2026-05-05 04:39 | 51.28619 | 6.77520 | 126 ft | 7 kts | 52° |
| 2026-05-05 04:39 | 51.28650 | 6.77584 | 127 ft | 7 kts | 53° |
| 2026-05-05 04:39 | 51.28659 | 6.77652 | 127 ft | 5 kts | 98° |
| 2026-05-05 04:39 | 51.28664 | 6.77722 | 128 ft | 6 kts | 67° |
| 2026-05-05 04:40 | 51.28694 | 6.77792 | 127 ft | 10 kts | 53° |
| 2026-05-05 04:40 | 51.28734 | 6.77861 | 129 ft | 7 kts | 27° |
| 2026-05-05 04:40 | 51.28783 | 6.77837 | 127 ft | 10 kts | 324° |
| 2026-05-05 04:40 | 51.28839 | 6.77770 | 128 ft | 9 kts | 323° |
| 2026-05-05 04:41 | 51.28885 | 6.77714 | 129 ft | 6 kts | 323° |
| 2026-05-05 04:41 | 51.28918 | 6.77704 | 130 ft | 4 kts | 9° |
| 2026-05-05 04:41 | 51.28961 | 6.77766 | 130 ft | 14 kts | 53° |
| 2026-05-05 04:41 | 51.29022 | 6.77894 | 130 ft | 14 kts | 52° |
| 2026-05-05 04:42 | 51.29075 | 6.78006 | 128 ft | 13 kts | 52° |
| 2026-05-05 04:42 | 51.29128 | 6.78116 | 134 ft | 12 kts | 53° |
| 2026-05-05 04:42 | 51.29175 | 6.78216 | 137 ft | 12 kts | 52° |
| 2026-05-05 04:42 | 51.29225 | 6.78322 | 141 ft | 10 kts | 53° |
| 2026-05-05 04:43 | 51.29257 | 6.78387 | 144 ft | 7 kts | 52° |
| 2026-05-05 04:43 | 51.29289 | 6.78454 | 147 ft | 8 kts | 52° |
| 2026-05-05 04:43 | 51.29327 | 6.78531 | 150 ft | 10 kts | 47° |
| 2026-05-05 04:43 | 51.29391 | 6.78571 | 152 ft | 12 kts | 1° |
| 2026-05-05 04:44 | 51.29482 | 6.78562 | 153 ft | 13 kts | 356° |
| 2026-05-05 04:44 | 51.29538 | 6.78550 | 155 ft | 4 kts | 333° |
| 2026-05-05 04:44 | 51.29541 | 6.78518 | 154 ft | 4 kts | 258° |
| 2026-05-05 04:44 | 51.29531 | 6.78495 | 153 ft | 0 kts | 232° |
| 2026-05-05 04:45 | 51.29531 | 6.78494 | 153 ft | 2 kts | 232° |
| 2026-05-05 04:45 | 51.29445 | 6.78314 | 148 ft | 53 kts | 233° |
| 2026-05-05 04:45 | 51.29073 | 6.77534 | 127 ft | 121 kts | 233° |
| 2026-05-05 04:45 | 51.28439 | 6.76201 | 168 ft | 171 kts | 233° |
| 2026-05-05 04:46 | 51.27723 | 6.74695 | 905 ft | 170 kts | 232° |
| 2026-05-05 04:46 | 51.27028 | 6.73204 | 1681 ft | 171 kts | 232° |
| 2026-05-05 04:46 | 51.26284 | 6.71599 | 2015 ft | 191 kts | 232° |
| 2026-05-05 04:46 | 51.25446 | 6.69797 | 2269 ft | 214 kts | 232° |
| 2026-05-05 04:47 | 51.24506 | 6.67781 | 2612 ft | 238 kts | 232° |
| 2026-05-05 04:47 | 51.23464 | 6.65576 | 3121 ft | 256 kts | 229° |
| 2026-05-05 04:47 | 51.22027 | 6.63894 | 3883 ft | 262 kts | 199° |
| 2026-05-05 04:47 | 51.20217 | 6.63613 | 4719 ft | 266 kts | 175° |
| 2026-05-05 04:48 | 51.18365 | 6.63891 | 5575 ft | 269 kts | 174° |
| 2026-05-05 04:48 | 51.16497 | 6.64227 | 6418 ft | 272 kts | 169° |
| 2026-05-05 04:48 | 51.14745 | 6.65378 | 7166 ft | 277 kts | 143° |
| 2026-05-05 04:48 | 51.13505 | 6.67731 | 7984 ft | 283 kts | 117° |
| 2026-05-05 04:49 | 51.13078 | 6.70802 | 8774 ft | 291 kts | 90° |
| 2026-05-05 04:49 | 51.13188 | 6.74033 | 9585 ft | 294 kts | 88° |
| 2026-05-05 04:49 | 51.13325 | 6.77308 | 10249 ft | 302 kts | 88° |
| 2026-05-05 04:49 | 51.13469 | 6.80771 | 10463 ft | 325 kts | 88° |
| 2026-05-05 04:50 | 51.13616 | 6.84486 | 10633 ft | 348 kts | 87° |
| 2026-05-05 04:50 | 51.13766 | 6.88431 | 10985 ft | 362 kts | 87° |
| 2026-05-05 04:50 | 51.13916 | 6.92461 | 11596 ft | 368 kts | 87° |
| 2026-05-05 04:50 | 51.14067 | 6.96554 | 12239 ft | 372 kts | 87° |
| 2026-05-05 04:51 | 51.14221 | 7.00685 | 12887 ft | 376 kts | 87° |
| 2026-05-05 04:51 | 51.14374 | 7.04875 | 13528 ft | 381 kts | 87° |
| 2026-05-05 04:51 | 51.14525 | 7.09106 | 14108 ft | 385 kts | 88° |
| 2026-05-05 04:51 | 51.14671 | 7.13380 | 14670 ft | 389 kts | 88° |
| 2026-05-05 04:52 | 51.14815 | 7.17696 | 15201 ft | 394 kts | 88° |
| 2026-05-05 04:52 | 51.14959 | 7.22086 | 15744 ft | 398 kts | 88° |
| 2026-05-05 04:52 | 51.15102 | 7.26508 | 16302 ft | 402 kts | 88° |
| 2026-05-05 04:52 | 51.15247 | 7.30916 | 16859 ft | 406 kts | 88° |
| 2026-05-05 04:53 | 51.15386 | 7.35425 | 17417 ft | 409 kts | 91° |
| 2026-05-05 04:53 | 51.15124 | 7.39936 | 17958 ft | 410 kts | 104° |
| 2026-05-05 04:53 | 51.14255 | 7.44253 | 18462 ft | 411 kts | 116° |
| 2026-05-05 04:53 | 51.12866 | 7.48221 | 18950 ft | 410 kts | 128° |
| 2026-05-05 04:54 | 51.11048 | 7.51710 | 19441 ft | 410 kts | 138° |
| 2026-05-05 04:54 | 51.08999 | 7.54874 | 19928 ft | 412 kts | 139° |
| 2026-05-05 04:54 | 51.06925 | 7.58046 | 20382 ft | 416 kts | 140° |
| 2026-05-05 04:54 | 51.04833 | 7.61238 | 20878 ft | 417 kts | 140° |
| 2026-05-05 04:55 | 51.02736 | 7.64435 | 21365 ft | 419 kts | 140° |
| 2026-05-05 04:55 | 51.00626 | 7.67642 | 21842 ft | 421 kts | 140° |
| 2026-05-05 04:55 | 50.98502 | 7.70862 | 22298 ft | 423 kts | 140° |
| 2026-05-05 04:55 | 50.96287 | 7.73917 | 22744 ft | 421 kts | 148° |
| 2026-05-05 04:56 | 50.93838 | 7.76449 | 23179 ft | 421 kts | 152° |
| 2026-05-05 04:56 | 50.91342 | 7.78898 | 23586 ft | 423 kts | 152° |
| 2026-05-05 04:56 | 50.88834 | 7.81356 | 23924 ft | 425 kts | 152° |
| 2026-05-05 04:56 | 50.86319 | 7.83822 | 24252 ft | 427 kts | 152° |
| 2026-05-05 04:57 | 50.83783 | 7.86316 | 24579 ft | 429 kts | 152° |
| 2026-05-05 04:57 | 50.81242 | 7.88816 | 24908 ft | 431 kts | 152° |
| 2026-05-05 04:57 | 50.78688 | 7.91324 | 25226 ft | 433 kts | 153° |
| 2026-05-05 04:57 | 50.76120 | 7.93840 | 25536 ft | 435 kts | 153° |
| 2026-05-05 04:58 | 50.73539 | 7.96363 | 25836 ft | 437 kts | 153° |
| 2026-05-05 04:58 | 50.70946 | 7.98891 | 26100 ft | 439 kts | 153° |
| 2026-05-05 04:58 | 50.68339 | 8.01431 | 26386 ft | 442 kts | 153° |
| 2026-05-05 04:58 | 50.65718 | 8.03977 | 26674 ft | 443 kts | 153° |
| 2026-05-05 04:59 | 50.63085 | 8.06533 | 26953 ft | 445 kts | 153° |
| 2026-05-05 04:59 | 50.60496 | 8.09104 | 27219 ft | 449 kts | 149° |
| 2026-05-05 04:59 | 50.58029 | 8.12179 | 27440 ft | 455 kts | 144° |
| 2026-05-05 04:59 | 50.55591 | 8.15380 | 27650 ft | 458 kts | 144° |
| 2026-05-05 05:00 | 50.53140 | 8.18599 | 27884 ft | 460 kts | 145° |
| 2026-05-05 05:00 | 50.50680 | 8.21827 | 28125 ft | 462 kts | 145° |
| 2026-05-05 05:00 | 50.48209 | 8.25069 | 28358 ft | 463 kts | 145° |
| 2026-05-05 05:00 | 50.45731 | 8.28313 | 28575 ft | 465 kts | 145° |
| 2026-05-05 05:01 | 50.43248 | 8.31556 | 28870 ft | 464 kts | 145° |
| 2026-05-05 05:01 | 50.40768 | 8.34793 | 29182 ft | 463 kts | 145° |
| 2026-05-05 05:01 | 50.39093 | 8.36977 | 29408 ft | 463 kts | 145° |
| 2026-05-05 05:01 | 50.35815 | 8.41240 | 29826 ft | 462 kts | 145° |
| 2026-05-05 05:02 | 50.33343 | 8.44448 | 30096 ft | 462 kts | 146° |
| 2026-05-05 05:02 | 50.31701 | 8.46574 | 30219 ft | 463 kts | 146° |
| 2026-05-05 05:02 | 50.29216 | 8.49789 | 30440 ft | 464 kts | 145° |
| 2026-05-05 05:02 | 50.26731 | 8.53004 | 30712 ft | 463 kts | 146° |
| 2026-05-05 05:03 | 50.24253 | 8.56202 | 31002 ft | 462 kts | 146° |
| 2026-05-05 05:03 | 50.21779 | 8.59386 | 31297 ft | 460 kts | 146° |
| 2026-05-05 05:03 | 50.19312 | 8.62556 | 31595 ft | 459 kts | 146° |
| 2026-05-05 05:03 | 50.16854 | 8.65709 | 31889 ft | 457 kts | 146° |
| 2026-05-05 05:04 | 50.14399 | 8.68855 | 32193 ft | 456 kts | 146° |
| 2026-05-05 05:04 | 50.11953 | 8.71987 | 32496 ft | 454 kts | 146° |
| 2026-05-05 05:04 | 50.09515 | 8.75109 | 32791 ft | 453 kts | 146° |
| 2026-05-05 05:04 | 50.07186 | 8.78433 | 33043 ft | 458 kts | 138° |
| 2026-05-05 05:05 | 50.05186 | 8.82328 | 33308 ft | 464 kts | 128° |
| 2026-05-05 05:05 | 50.03591 | 8.86712 | 33575 ft | 469 kts | 120° |
| 2026-05-05 05:05 | 50.02186 | 8.91284 | 33846 ft | 468 kts | 120° |
| 2026-05-05 05:05 | 50.00773 | 8.95848 | 34094 ft | 467 kts | 120° |
| 2026-05-05 05:06 | 49.99360 | 9.00384 | 34335 ft | 466 kts | 121° |
| 2026-05-05 05:06 | 49.97940 | 9.04915 | 34570 ft | 466 kts | 121° |
| 2026-05-05 05:06 | 49.96518 | 9.09429 | 34792 ft | 465 kts | 121° |
| 2026-05-05 05:06 | 49.95100 | 9.13935 | 34989 ft | 465 kts | 121° |
| 2026-05-05 05:07 | 49.93683 | 9.18445 | 35190 ft | 464 kts | 121° |
| 2026-05-05 05:07 | 49.92287 | 9.22885 | 35397 ft | 464 kts | 121° |
| 2026-05-05 05:07 | 49.90872 | 9.27376 | 35591 ft | 463 kts | 121° |
| 2026-05-05 05:07 | 49.89440 | 9.31916 | 35781 ft | 463 kts | 121° |
| 2026-05-05 05:08 | 49.88044 | 9.36337 | 35981 ft | 462 kts | 121° |
| 2026-05-05 05:08 | 49.86631 | 9.40803 | 36176 ft | 461 kts | 121° |
| 2026-05-05 05:08 | 49.85196 | 9.45313 | 36362 ft | 460 kts | 121° |
| 2026-05-05 05:08 | 49.83772 | 9.49760 | 36549 ft | 459 kts | 123° |
| 2026-05-05 05:09 | 49.82126 | 9.53862 | 36716 ft | 452 kts | 132° |
| 2026-05-05 05:09 | 49.80091 | 9.57510 | 36871 ft | 445 kts | 141° |
| 2026-05-05 05:09 | 49.77838 | 9.60787 | 36910 ft | 445 kts | 142° |
| 2026-05-05 05:10 | 49.73315 | 9.67319 | 36908 ft | 445 kts | 142° |
| 2026-05-05 05:10 | 49.68801 | 9.73848 | 36909 ft | 445 kts | 142° |
| 2026-05-05 05:11 | 49.64285 | 9.80380 | 36898 ft | 445 kts | 142° |
| 2026-05-05 05:11 | 49.59768 | 9.86897 | 36899 ft | 445 kts | 142° |
| 2026-05-05 05:12 | 49.55241 | 9.93384 | 36881 ft | 445 kts | 142° |
| 2026-05-05 05:12 | 49.50706 | 9.99866 | 36881 ft | 445 kts | 142° |
| 2026-05-05 05:13 | 49.46176 | 10.06334 | 36897 ft | 445 kts | 142° |
| 2026-05-05 05:13 | 49.41644 | 10.12796 | 36903 ft | 444 kts | 142° |
| 2026-05-05 05:14 | 49.37109 | 10.19238 | 36902 ft | 444 kts | 142° |
| 2026-05-05 05:14 | 49.32571 | 10.25671 | 36910 ft | 444 kts | 142° |
| 2026-05-05 05:15 | 49.28027 | 10.32083 | 36883 ft | 444 kts | 142° |
| 2026-05-05 05:15 | 49.23447 | 10.38299 | 36862 ft | 439 kts | 149° |
| 2026-05-05 05:15 | 49.20905 | 10.40837 | 36253 ft | 435 kts | 154° |
| 2026-05-05 05:16 | 49.18306 | 10.43209 | 35473 ft | 436 kts | 154° |
| 2026-05-05 05:16 | 49.15691 | 10.45571 | 34704 ft | 438 kts | 154° |
| 2026-05-05 05:16 | 49.13066 | 10.47938 | 33943 ft | 439 kts | 154° |
| 2026-05-05 05:16 | 49.10432 | 10.50318 | 33190 ft | 440 kts | 154° |
| 2026-05-05 05:17 | 49.07794 | 10.52706 | 32944 ft | 442 kts | 154° |
| 2026-05-05 05:17 | 49.02488 | 10.57513 | 32918 ft | 445 kts | 154° |
| 2026-05-05 05:18 | 48.97159 | 10.62337 | 32925 ft | 446 kts | 154° |
| 2026-05-05 05:18 | 48.91825 | 10.67149 | 32920 ft | 446 kts | 154° |
| 2026-05-05 05:19 | 48.86488 | 10.71953 | 32921 ft | 446 kts | 154° |
| 2026-05-05 05:19 | 48.81257 | 10.77043 | 32904 ft | 450 kts | 144° |
| 2026-05-05 05:20 | 48.76863 | 10.83913 | 32885 ft | 456 kts | 136° |
| 2026-05-05 05:20 | 48.72614 | 10.91063 | 32876 ft | 456 kts | 136° |
| 2026-05-05 05:21 | 48.68351 | 10.98187 | 32868 ft | 457 kts | 136° |
| 2026-05-05 05:21 | 48.64111 | 11.05264 | 32873 ft | 457 kts | 136° |
| 2026-05-05 05:22 | 48.59818 | 11.12423 | 32880 ft | 457 kts | 136° |
| 2026-05-05 05:22 | 48.55565 | 11.19470 | 32881 ft | 457 kts | 136° |
| 2026-05-05 05:23 | 48.51286 | 11.26542 | 32884 ft | 456 kts | 136° |
| 2026-05-05 05:23 | 48.47013 | 11.33599 | 32874 ft | 455 kts | 135° |
| 2026-05-05 05:24 | 48.42747 | 11.40647 | 32877 ft | 455 kts | 135° |
| 2026-05-05 05:24 | 48.38468 | 11.47671 | 32879 ft | 455 kts | 136° |
| 2026-05-05 05:25 | 48.34177 | 11.54669 | 32880 ft | 455 kts | 136° |
| 2026-05-05 05:25 | 48.29892 | 11.61663 | 32881 ft | 455 kts | 136° |
| 2026-05-05 05:26 | 48.25580 | 11.68620 | 32870 ft | 454 kts | 137° |
| 2026-05-05 05:26 | 48.21015 | 11.75147 | 32876 ft | 453 kts | 141° |
| 2026-05-05 05:27 | 48.16294 | 11.81405 | 32879 ft | 453 kts | 142° |
| 2026-05-05 05:27 | 48.09255 | 11.90849 | 32880 ft | 453 kts | 140° |
| 2026-05-05 05:28 | 48.04610 | 11.97232 | 32877 ft | 454 kts | 140° |
| 2026-05-05 05:28 | 47.99957 | 12.03608 | 32855 ft | 454 kts | 140° |
| 2026-05-05 05:29 | 47.95286 | 12.09959 | 32868 ft | 454 kts | 140° |
| 2026-05-05 05:29 | 47.90611 | 12.16295 | 32869 ft | 454 kts | 140° |
| 2026-05-05 05:30 | 47.85927 | 12.22627 | 32871 ft | 455 kts | 140° |
| 2026-05-05 05:30 | 47.81243 | 12.28940 | 32876 ft | 455 kts | 141° |
| 2026-05-05 05:31 | 47.76552 | 12.35254 | 32870 ft | 455 kts | 141° |
| 2026-05-05 05:31 | 47.71886 | 12.41502 | 32874 ft | 455 kts | 141° |
| 2026-05-05 05:32 | 47.67183 | 12.47781 | 32883 ft | 454 kts | 141° |
| 2026-05-05 05:32 | 47.62462 | 12.54012 | 32883 ft | 453 kts | 144° |
| 2026-05-05 05:33 | 47.57418 | 12.59580 | 32883 ft | 452 kts | 146° |
| 2026-05-05 05:33 | 47.52361 | 12.65119 | 32870 ft | 453 kts | 146° |
| 2026-05-05 05:34 | 47.47291 | 12.70664 | 32874 ft | 454 kts | 146° |
| 2026-05-05 05:34 | 47.42210 | 12.76206 | 32898 ft | 454 kts | 146° |
| 2026-05-05 05:35 | 47.37123 | 12.81737 | 32895 ft | 454 kts | 146° |
| 2026-05-05 05:35 | 47.32025 | 12.87255 | 32923 ft | 455 kts | 147° |
| 2026-05-05 05:36 | 47.26923 | 12.92766 | 32915 ft | 455 kts | 147° |
| 2026-05-05 05:36 | 47.21815 | 12.98271 | 32931 ft | 455 kts | 146° |
| 2026-05-05 05:37 | 47.16700 | 13.03778 | 32939 ft | 456 kts | 146° |
| 2026-05-05 05:37 | 47.11584 | 13.09283 | 32958 ft | 456 kts | 147° |
| 2026-05-05 05:38 | 47.06457 | 13.14778 | 32967 ft | 456 kts | 147° |
| 2026-05-05 05:38 | 47.01325 | 13.20259 | 32973 ft | 456 kts | 147° |
| 2026-05-05 05:39 | 46.96191 | 13.25732 | 32969 ft | 457 kts | 147° |
| 2026-05-05 05:39 | 46.91043 | 13.31208 | 32985 ft | 457 kts | 147° |
| 2026-05-05 05:40 | 46.85890 | 13.36673 | 32983 ft | 458 kts | 147° |
| 2026-05-05 05:40 | 46.80731 | 13.42138 | 32992 ft | 458 kts | 147° |
| 2026-05-05 05:41 | 46.75600 | 13.47555 | 32984 ft | 458 kts | 147° |
| 2026-05-05 05:41 | 46.70428 | 13.52998 | 32977 ft | 459 kts | 147° |
| 2026-05-05 05:42 | 46.65243 | 13.58448 | 32981 ft | 460 kts | 147° |
| 2026-05-05 05:42 | 46.60042 | 13.63892 | 32985 ft | 461 kts | 147° |
| 2026-05-05 05:43 | 46.54837 | 13.69335 | 32990 ft | 461 kts | 147° |
| 2026-05-05 05:43 | 46.49631 | 13.74777 | 33000 ft | 461 kts | 147° |
| 2026-05-05 05:44 | 46.44423 | 13.80196 | 32995 ft | 461 kts | 147° |
| 2026-05-05 05:44 | 46.39206 | 13.85604 | 32988 ft | 462 kts | 147° |
| 2026-05-05 05:45 | 46.33978 | 13.91013 | 32984 ft | 462 kts | 147° |
| 2026-05-05 05:45 | 46.28748 | 13.96429 | 32988 ft | 463 kts | 147° |
| 2026-05-05 05:46 | 46.23499 | 14.01833 | 32990 ft | 463 kts | 148° |
| 2026-05-05 05:46 | 46.18247 | 14.07217 | 33016 ft | 463 kts | 148° |
| 2026-05-05 05:47 | 46.12989 | 14.12615 | 33007 ft | 464 kts | 147° |
| 2026-05-05 05:47 | 46.07721 | 14.18021 | 33001 ft | 465 kts | 147° |
| 2026-05-05 05:48 | 46.02443 | 14.23412 | 33007 ft | 465 kts | 148° |
| 2026-05-05 05:48 | 45.97159 | 14.28780 | 33011 ft | 465 kts | 148° |
| 2026-05-05 05:49 | 45.91869 | 14.34143 | 33014 ft | 465 kts | 148° |
| 2026-05-05 05:49 | 45.86580 | 14.39504 | 33009 ft | 466 kts | 147° |
| 2026-05-05 05:50 | 45.82175 | 14.43959 | 33010 ft | 466 kts | 147° |
| 2026-05-05 05:50 | 45.76008 | 14.50192 | 33012 ft | 467 kts | 147° |
| 2026-05-05 05:51 | 45.70694 | 14.55544 | 33022 ft | 467 kts | 148° |
| 2026-05-05 05:51 | 45.66240 | 14.60011 | 33019 ft | 467 kts | 148° |
| 2026-05-05 05:52 | 45.60916 | 14.65332 | 33011 ft | 467 kts | 147° |
| 2026-05-05 05:52 | 45.55625 | 14.70623 | 33017 ft | 467 kts | 147° |
| 2026-05-05 05:53 | 45.50152 | 14.75563 | 33034 ft | 464 kts | 155° |
| 2026-05-05 05:53 | 45.44431 | 14.79828 | 33039 ft | 464 kts | 155° |
| 2026-05-05 05:54 | 45.38707 | 14.84079 | 33037 ft | 464 kts | 155° |
| 2026-05-05 05:54 | 45.32981 | 14.88328 | 33045 ft | 464 kts | 155° |
| 2026-05-05 05:55 | 45.27251 | 14.92566 | 33043 ft | 464 kts | 155° |
| 2026-05-05 05:55 | 45.21515 | 14.96798 | 33043 ft | 465 kts | 155° |
| 2026-05-05 05:56 | 45.15781 | 15.01035 | 33025 ft | 465 kts | 155° |
| 2026-05-05 05:56 | 45.10041 | 15.05261 | 33030 ft | 465 kts | 155° |
| 2026-05-05 05:57 | 45.04305 | 15.09469 | 33039 ft | 465 kts | 155° |
| 2026-05-05 05:57 | 44.98561 | 15.13676 | 33044 ft | 465 kts | 155° |
| 2026-05-05 05:58 | 44.92822 | 15.17874 | 33040 ft | 465 kts | 155° |
| 2026-05-05 05:58 | 44.87114 | 15.22041 | 33048 ft | 465 kts | 155° |
| 2026-05-05 05:59 | 44.81367 | 15.26225 | 33050 ft | 465 kts | 155° |
| 2026-05-05 05:59 | 44.75613 | 15.30396 | 33052 ft | 465 kts | 156° |
| 2026-05-05 06:00 | 44.69861 | 15.34556 | 33039 ft | 465 kts | 156° |
| 2026-05-05 06:00 | 44.64100 | 15.38722 | 33050 ft | 466 kts | 156° |
| 2026-05-05 06:01 | 44.58336 | 15.42877 | 33053 ft | 466 kts | 156° |
| 2026-05-05 06:01 | 44.52565 | 15.47023 | 33056 ft | 466 kts | 156° |
| 2026-05-05 06:02 | 44.46792 | 15.51164 | 33057 ft | 466 kts | 156° |
| 2026-05-05 06:02 | 44.41019 | 15.55296 | 33051 ft | 466 kts | 156° |
| 2026-05-05 06:03 | 44.35238 | 15.59429 | 33056 ft | 467 kts | 156° |
| 2026-05-05 06:03 | 44.29450 | 15.63555 | 33050 ft | 467 kts | 156° |
| 2026-05-05 06:04 | 44.23654 | 15.67680 | 33053 ft | 468 kts | 156° |
| 2026-05-05 06:04 | 44.17847 | 15.71800 | 33057 ft | 469 kts | 156° |
| 2026-05-05 06:05 | 44.12033 | 15.75918 | 33052 ft | 469 kts | 156° |
| 2026-05-05 06:05 | 44.06210 | 15.80030 | 33044 ft | 470 kts | 157° |
| 2026-05-05 06:06 | 44.00410 | 15.84120 | 33047 ft | 471 kts | 157° |
| 2026-05-05 06:06 | 43.94564 | 15.88241 | 33049 ft | 472 kts | 157° |
| 2026-05-05 06:07 | 43.88706 | 15.92360 | 33049 ft | 472 kts | 157° |
| 2026-05-05 06:07 | 43.82838 | 15.96472 | 33043 ft | 474 kts | 158° |
| 2026-05-05 06:08 | 43.76939 | 16.00587 | 33034 ft | 475 kts | 158° |
| 2026-05-05 06:08 | 43.71013 | 16.04704 | 33040 ft | 477 kts | 158° |
| 2026-05-05 06:09 | 43.65076 | 16.08825 | 33044 ft | 478 kts | 158° |
| 2026-05-05 06:09 | 43.59131 | 16.12960 | 33082 ft | 479 kts | 158° |
| 2026-05-05 06:10 | 43.53178 | 16.17089 | 33093 ft | 479 kts | 158° |
| 2026-05-05 06:10 | 43.47219 | 16.21211 | 33096 ft | 479 kts | 158° |
| 2026-05-05 06:11 | 43.41254 | 16.25321 | 33078 ft | 480 kts | 158° |
| 2026-05-05 06:11 | 43.35281 | 16.29425 | 33074 ft | 481 kts | 158° |
| 2026-05-05 06:12 | 43.29296 | 16.33532 | 33071 ft | 481 kts | 158° |
| 2026-05-05 06:12 | 43.23302 | 16.37643 | 33049 ft | 482 kts | 158° |
| 2026-05-05 06:13 | 43.17334 | 16.41721 | 33050 ft | 483 kts | 158° |
| 2026-05-05 06:13 | 43.11308 | 16.45824 | 33053 ft | 484 kts | 158° |
| 2026-05-05 06:14 | 43.05279 | 16.49930 | 33065 ft | 484 kts | 158° |
| 2026-05-05 06:14 | 42.99237 | 16.54038 | 33056 ft | 485 kts | 158° |
| 2026-05-05 06:15 | 42.93196 | 16.58137 | 33066 ft | 485 kts | 158° |
| 2026-05-05 06:15 | 42.87149 | 16.62227 | 33063 ft | 485 kts | 158° |
| 2026-05-05 06:16 | 42.84120 | 16.64270 | 32861 ft | 488 kts | 158° |
| 2026-05-05 06:16 | 42.81079 | 16.66316 | 32327 ft | 487 kts | 158° |
| 2026-05-05 06:16 | 42.78043 | 16.68359 | 31806 ft | 488 kts | 158° |
| 2026-05-05 06:16 | 42.74995 | 16.70406 | 31300 ft | 489 kts | 158° |
| 2026-05-05 06:17 | 42.71935 | 16.72463 | 30802 ft | 491 kts | 158° |
| 2026-05-05 06:17 | 42.68861 | 16.74523 | 30075 ft | 493 kts | 158° |
| 2026-05-05 06:17 | 42.65826 | 16.76557 | 29240 ft | 494 kts | 157° |
| 2026-05-05 06:17 | 42.62741 | 16.78624 | 28435 ft | 494 kts | 157° |
| 2026-05-05 06:18 | 42.59652 | 16.80686 | 27719 ft | 494 kts | 157° |
| 2026-05-05 06:18 | 42.56565 | 16.82745 | 27437 ft | 495 kts | 157° |
| 2026-05-05 06:18 | 42.53482 | 16.84805 | 27179 ft | 494 kts | 157° |
| 2026-05-05 06:18 | 42.50409 | 16.86863 | 26924 ft | 492 kts | 157° |
| 2026-05-05 06:19 | 42.47351 | 16.88910 | 26669 ft | 490 kts | 157° |
| 2026-05-05 06:19 | 42.44299 | 16.90947 | 26423 ft | 488 kts | 157° |
| 2026-05-05 06:19 | 42.41262 | 16.92967 | 26175 ft | 486 kts | 157° |
| 2026-05-05 06:19 | 42.38231 | 16.94970 | 25929 ft | 483 kts | 157° |
| 2026-05-05 06:20 | 42.35216 | 16.96962 | 25677 ft | 482 kts | 157° |
| 2026-05-05 06:20 | 42.32209 | 16.98951 | 25394 ft | 480 kts | 157° |
| 2026-05-05 06:20 | 42.29223 | 17.00927 | 24582 ft | 477 kts | 157° |
| 2026-05-05 06:20 | 42.26249 | 17.02893 | 23807 ft | 474 kts | 156° |
| 2026-05-05 06:21 | 42.23294 | 17.04843 | 22971 ft | 471 kts | 156° |
| 2026-05-05 06:21 | 42.20370 | 17.06768 | 22271 ft | 465 kts | 156° |
| 2026-05-05 06:21 | 42.17472 | 17.08675 | 21570 ft | 460 kts | 156° |
| 2026-05-05 06:21 | 42.14614 | 17.10555 | 20885 ft | 455 kts | 156° |
| 2026-05-05 06:22 | 42.11787 | 17.12413 | 20234 ft | 449 kts | 156° |
| 2026-05-05 06:22 | 42.08989 | 17.14249 | 19612 ft | 444 kts | 155° |
| 2026-05-05 06:22 | 42.06230 | 17.16059 | 19002 ft | 439 kts | 155° |
| 2026-05-05 06:22 | 42.03504 | 17.17848 | 18440 ft | 433 kts | 155° |
| 2026-05-05 06:23 | 42.00809 | 17.19615 | 17826 ft | 428 kts | 155° |
| 2026-05-05 06:23 | 41.98099 | 17.21162 | 17292 ft | 419 kts | 165° |
| 2026-05-05 06:23 | 41.95264 | 17.21819 | 16764 ft | 410 kts | 180° |
| 2026-05-05 06:23 | 41.92455 | 17.21528 | 16251 ft | 401 kts | 193° |
| 2026-05-05 06:24 | 41.89832 | 17.20377 | 15713 ft | 394 kts | 207° |
| 2026-05-05 06:24 | 41.87522 | 17.18479 | 15177 ft | 388 kts | 219° |
| 2026-05-05 06:24 | 41.85501 | 17.16113 | 14623 ft | 384 kts | 222° |
| 2026-05-05 06:24 | 41.83511 | 17.13738 | 14066 ft | 381 kts | 221° |
| 2026-05-05 06:25 | 41.81533 | 17.11384 | 13429 ft | 379 kts | 221° |
| 2026-05-05 06:25 | 41.79595 | 17.09086 | 12850 ft | 375 kts | 221° |
| 2026-05-05 06:25 | 41.77654 | 17.06787 | 12241 ft | 371 kts | 221° |
| 2026-05-05 06:25 | 41.75727 | 17.04507 | 11627 ft | 368 kts | 221° |
| 2026-05-05 06:26 | 41.73762 | 17.02338 | 11034 ft | 365 kts | 214° |
| 2026-05-05 06:26 | 41.71577 | 17.00768 | 10859 ft | 350 kts | 203° |
| 2026-05-05 06:26 | 41.69307 | 16.99793 | 10737 ft | 335 kts | 197° |
| 2026-05-05 06:26 | 41.67114 | 16.98960 | 10614 ft | 321 kts | 197° |
| 2026-05-05 06:27 | 41.65012 | 16.98153 | 10494 ft | 308 kts | 197° |
| 2026-05-05 06:27 | 41.61034 | 16.96630 | 10170 ft | 289 kts | 197° |
| 2026-05-05 06:27 | 41.59121 | 16.95899 | 10018 ft | 284 kts | 197° |
| 2026-05-05 06:28 | 41.57218 | 16.95173 | 9852 ft | 287 kts | 197° |
| 2026-05-05 06:28 | 41.55293 | 16.94445 | 9440 ft | 285 kts | 196° |
| 2026-05-05 06:28 | 41.53319 | 16.94053 | 8929 ft | 288 kts | 180° |
| 2026-05-05 06:28 | 41.51358 | 16.94401 | 8630 ft | 284 kts | 165° |
| 2026-05-05 06:29 | 41.49513 | 16.95333 | 8229 ft | 283 kts | 159° |
| 2026-05-05 06:29 | 41.47704 | 16.96330 | 7969 ft | 276 kts | 159° |
| 2026-05-05 06:29 | 41.45964 | 16.97289 | 7802 ft | 266 kts | 159° |
| 2026-05-05 06:29 | 41.44239 | 16.98239 | 7364 ft | 267 kts | 159° |
| 2026-05-05 06:30 | 41.42525 | 16.99150 | 6994 ft | 265 kts | 160° |
| 2026-05-05 06:30 | 41.40798 | 17.00009 | 6609 ft | 264 kts | 161° |
| 2026-05-05 06:30 | 41.39094 | 17.00837 | 6235 ft | 255 kts | 161° |
| 2026-05-05 06:30 | 41.37469 | 17.01625 | 5889 ft | 242 kts | 161° |
| 2026-05-05 06:31 | 41.35913 | 17.02383 | 5497 ft | 236 kts | 159° |
| 2026-05-05 06:31 | 41.34555 | 17.03571 | 5147 ft | 236 kts | 131° |
| 2026-05-05 06:31 | 41.33891 | 17.05541 | 4876 ft | 235 kts | 96° |
| 2026-05-05 06:31 | 41.34117 | 17.07679 | 4831 ft | 240 kts | 72° |
| 2026-05-05 06:32 | 41.34730 | 17.09753 | 4772 ft | 241 kts | 72° |
| 2026-05-05 06:32 | 41.35318 | 17.11837 | 4714 ft | 240 kts | 71° |
| 2026-05-05 06:32 | 41.35886 | 17.13899 | 4655 ft | 240 kts | 72° |
| 2026-05-05 06:32 | 41.36458 | 17.15991 | 4601 ft | 240 kts | 71° |
| 2026-05-05 06:33 | 41.37031 | 17.18075 | 4548 ft | 240 kts | 71° |
| 2026-05-05 06:33 | 41.37607 | 17.20160 | 4497 ft | 240 kts | 71° |
| 2026-05-05 06:33 | 41.37976 | 17.22299 | 4438 ft | 235 kts | 95° |
| 2026-05-05 06:33 | 41.37512 | 17.24333 | 4387 ft | 230 kts | 127° |
| 2026-05-05 06:34 | 41.36357 | 17.25727 | 4330 ft | 223 kts | 156° |
| 2026-05-05 06:34 | 41.34915 | 17.26467 | 4285 ft | 222 kts | 161° |
| 2026-05-05 06:34 | 41.33470 | 17.27165 | 4234 ft | 220 kts | 161° |
| 2026-05-05 06:34 | 41.32039 | 17.27855 | 4187 ft | 218 kts | 161° |
| 2026-05-05 06:35 | 41.30605 | 17.28546 | 4139 ft | 220 kts | 161° |
| 2026-05-05 06:35 | 41.29130 | 17.28990 | 4083 ft | 218 kts | 185° |
| 2026-05-05 06:35 | 41.27737 | 17.28285 | 4034 ft | 219 kts | 220° |
| 2026-05-05 06:35 | 41.26910 | 17.26596 | 3989 ft | 222 kts | 247° |
| 2026-05-05 06:36 | 41.26369 | 17.24660 | 3957 ft | 223 kts | 248° |
| 2026-05-05 06:36 | 41.25837 | 17.22718 | 3988 ft | 224 kts | 248° |
| 2026-05-05 06:36 | 41.25304 | 17.20777 | 3999 ft | 223 kts | 247° |
| 2026-05-05 06:36 | 41.24768 | 17.18841 | 3987 ft | 224 kts | 248° |
| 2026-05-05 06:37 | 41.24229 | 17.16902 | 3992 ft | 224 kts | 248° |
| 2026-05-05 06:37 | 41.23689 | 17.14964 | 3987 ft | 223 kts | 247° |
| 2026-05-05 06:37 | 41.23149 | 17.13029 | 3993 ft | 223 kts | 248° |
| 2026-05-05 06:37 | 41.22610 | 17.11094 | 3991 ft | 224 kts | 247° |
| 2026-05-05 06:38 | 41.22069 | 17.09162 | 3998 ft | 223 kts | 247° |
| 2026-05-05 06:38 | 41.21535 | 17.07223 | 3994 ft | 224 kts | 251° |
| 2026-05-05 06:38 | 41.21192 | 17.05180 | 3620 ft | 232 kts | 256° |
| 2026-05-05 06:38 | 41.20874 | 17.03087 | 3013 ft | 236 kts | 256° |
| 2026-05-05 06:39 | 41.20554 | 17.00985 | 2666 ft | 226 kts | 256° |
| 2026-05-05 06:39 | 41.20255 | 16.99014 | 2518 ft | 209 kts | 255° |
| 2026-05-05 06:39 | 41.19815 | 16.97251 | 2431 ft | 193 kts | 246° |
| 2026-05-05 06:39 | 41.19350 | 16.95602 | 2344 ft | 188 kts | 246° |
| 2026-05-05 06:40 | 41.18896 | 16.93988 | 2236 ft | 186 kts | 246° |
| 2026-05-05 06:40 | 41.18445 | 16.92387 | 2150 ft | 185 kts | 246° |
| 2026-05-05 06:40 | 41.17996 | 16.90790 | 2065 ft | 184 kts | 246° |
| 2026-05-05 06:40 | 41.17559 | 16.89235 | 1975 ft | 171 kts | 246° |
| 2026-05-05 06:41 | 41.17160 | 16.87806 | 1750 ft | 161 kts | 246° |
| 2026-05-05 06:41 | 41.16780 | 16.86453 | 1548 ft | 152 kts | 246° |
| 2026-05-05 06:41 | 41.16415 | 16.85156 | 1357 ft | 149 kts | 245° |
| 2026-05-05 06:41 | 41.16176 | 16.84308 | 1227 ft | 147 kts | 245° |
| 2026-05-05 06:42 | 41.15698 | 16.82612 | 965 ft | 145 kts | 245° |
| 2026-05-05 06:42 | 41.15465 | 16.81784 | 831 ft | 144 kts | 246° |
| 2026-05-05 06:42 | 41.15111 | 16.80534 | 655 ft | 145 kts | 246° |
| 2026-05-05 06:42 | 41.14755 | 16.79264 | 455 ft | 147 kts | 249° |
| 2026-05-05 06:43 | 41.14401 | 16.77986 | 253 ft | 147 kts | 247° |
| 2026-05-05 06:43 | 41.14043 | 16.76740 | 126 ft | 135 kts | 250° |
| 2026-05-05 06:43 | 41.13776 | 16.75794 | 138 ft | 86 kts | 250° |
| 2026-05-05 06:43 | 41.13607 | 16.75194 | 138 ft | 55 kts | 249° |
| 2026-05-05 06:44 | 41.13513 | 16.74859 | 138 ft | 29 kts | 249° |
| 2026-05-05 06:44 | 41.13436 | 16.74738 | 142 ft | 15 kts | 179° |
| 2026-05-05 06:44 | 41.13373 | 16.74819 | 147 ft | 13 kts | 121° |
| 2026-05-05 06:44 | 41.13342 | 16.74925 | 148 ft | 12 kts | 78° |
| 2026-05-05 06:45 | 41.13372 | 16.75028 | 148 ft | 11 kts | 70° |
| 2026-05-05 06:45 | 41.13396 | 16.75115 | 147 ft | 12 kts | 70° |
| 2026-05-05 06:45 | 41.13437 | 16.75258 | 143 ft | 20 kts | 69° |
| 2026-05-05 06:45 | 41.13489 | 16.75441 | 143 ft | 22 kts | 69° |
| 2026-05-05 06:46 | 41.13547 | 16.75648 | 138 ft | 26 kts | 69° |
| 2026-05-05 06:46 | 41.13592 | 16.75807 | 138 ft | 18 kts | 69° |
| 2026-05-05 06:46 | 41.13633 | 16.75949 | 136 ft | 13 kts | 70° |
| 2026-05-05 06:46 | 41.13612 | 16.76052 | 136 ft | 13 kts | 136° |
| 2026-05-05 06:47 | 41.13553 | 16.76138 | 136 ft | 11 kts | 102° |
| 2026-05-05 06:47 | 41.13572 | 16.76234 | 136 ft | 10 kts | 70° |
| 2026-05-05 06:47 | 41.13581 | 16.76312 | 136 ft | 7 kts | 126° |
| 2026-05-05 06:47 | 41.13549 | 16.76333 | 136 ft | 2 kts | 160° |
| 2026-05-05 06:48 | 41.13535 | 16.76340 | 136 ft | 3 kts | 160° |
| 2026-05-05 06:48 | 41.13522 | 16.76346 | 136 ft | 1 kts | 159° |